createdAt,value
2022-08-19T00:00:12.507Z,25.30
2022-08-19T00:02:59.751Z,25.27
2022-08-19T00:05:27.309Z,25.20
2022-08-19T00:07:54.605Z,25.17
2022-08-19T00:10:22.361Z,25.17
2022-08-19T00:12:49.883Z,25.08
2022-08-19T00:15:21.271Z,25.04
2022-08-19T00:17:49.854Z,25.08
2022-08-19T00:20:21.588Z,25.08
2022-08-19T00:22:49.172Z,25.06
2022-08-19T00:25:17.795Z,25.08
2022-08-19T00:27:45.306Z,25.04
2022-08-19T00:30:13.173Z,25.01
2022-08-19T00:32:41.184Z,24.89
2022-08-19T00:35:10.724Z,24.90
2022-08-19T00:37:39.341Z,24.89
2022-08-19T00:40:08.808Z,24.84
2022-08-19T00:42:36.307Z,24.77
2022-08-19T00:45:11.691Z,24.77
2022-08-19T00:47:39.780Z,24.80
2022-08-19T00:50:09.708Z,24.74
2022-08-19T00:52:46.373Z,24.65
2022-08-19T00:55:29.842Z,24.65
2022-08-19T00:58:03.572Z,24.63
2022-08-19T01:00:33.669Z,24.65
2022-08-19T01:03:01.212Z,24.59
2022-08-19T01:05:30.678Z,24.58
2022-08-19T01:08:01.968Z,24.60
2022-08-19T01:10:36.634Z,24.55
2022-08-19T01:13:06.025Z,24.51
2022-08-19T01:15:42.752Z,24.51
2022-08-19T01:18:15.395Z,24.54
2022-08-19T01:20:45.112Z,24.53
2022-08-19T01:23:14.186Z,24.51
2022-08-19T01:25:53.567Z,24.48
2022-08-19T01:28:33.916Z,24.48
2022-08-19T01:31:01.728Z,24.49
2022-08-19T01:33:35.714Z,24.46
2022-08-19T01:36:11.838Z,24.41
2022-08-19T01:38:44.648Z,24.41
2022-08-19T01:41:13.553Z,24.34
2022-08-19T01:44:17.072Z,24.42
2022-08-19T01:46:29.574Z,24.36
2022-08-19T01:48:58.008Z,24.34
2022-08-19T01:51:25.566Z,24.31
2022-08-19T01:53:53.425Z,24.27
2022-08-19T01:56:21.666Z,24.28
2022-08-19T01:58:59.006Z,24.25
2022-08-19T02:01:26.602Z,24.27
2022-08-19T02:03:59.717Z,24.23
2022-08-19T02:06:27.386Z,24.19
2022-08-19T02:08:57.208Z,24.13
2022-08-19T02:11:32.484Z,24.17
2022-08-19T02:14:03.239Z,24.15
2022-08-19T02:16:31.770Z,24.17
2022-08-19T02:19:01.647Z,24.07
2022-08-19T02:21:31.287Z,24.05
2022-08-19T02:23:58.880Z,24.14
2022-08-19T02:26:27.754Z,24.14
2022-08-19T02:28:57.148Z,24.03
2022-08-19T02:31:28.761Z,24.13
2022-08-19T02:33:58.304Z,24.06
2022-08-19T02:36:26.661Z,24.05
2022-08-19T02:38:55.651Z,24.04
2022-08-19T02:41:29.197Z,23.94
2022-08-19T02:44:26.655Z,23.97
2022-08-19T02:46:51.853Z,23.99
2022-08-19T02:49:20.904Z,23.96
2022-08-19T02:51:48.798Z,23.92
2022-08-19T02:54:16.665Z,23.81
2022-08-19T02:56:46.901Z,23.86
2022-08-19T02:59:14.391Z,23.85
2022-08-19T03:01:43.344Z,23.80
2022-08-19T03:04:14.989Z,23.78
2022-08-19T03:06:47.520Z,23.76
2022-08-19T03:09:15.973Z,23.73
2022-08-19T03:11:43.528Z,23.72
2022-08-19T03:14:12.090Z,23.76
2022-08-19T03:16:50.182Z,23.74
2022-08-19T03:19:22.298Z,23.71
2022-08-19T03:21:51.354Z,23.73
2022-08-19T03:24:20.307Z,23.72
2022-08-19T03:26:52.472Z,23.69
2022-08-19T03:29:31.124Z,23.69
2022-08-19T03:32:06.073Z,23.70
2022-08-19T03:34:37.652Z,23.66
2022-08-19T03:37:15.328Z,23.69
2022-08-19T03:39:43.440Z,23.65
2022-08-19T03:42:32.082Z,23.63
2022-08-19T03:44:59.952Z,23.66
2022-08-19T03:47:27.219Z,23.64
2022-08-19T03:49:54.603Z,23.68
2022-08-19T03:52:22.091Z,23.66
2022-08-19T03:54:49.349Z,23.77
2022-08-19T03:57:16.619Z,23.81
2022-08-19T03:59:44.668Z,23.71
2022-08-19T04:02:14.367Z,23.69
2022-08-19T04:04:44.606Z,23.77
2022-08-19T04:07:17.181Z,23.85
2022-08-19T04:09:44.609Z,23.90
2022-08-19T04:12:11.907Z,23.98
2022-08-19T04:14:40.512Z,24.02
2022-08-19T04:17:07.886Z,24.04
2022-08-19T04:19:37.054Z,24.02
2022-08-19T04:22:05.773Z,24.11
2022-08-19T04:24:36.783Z,24.13
2022-08-19T04:27:06.523Z,24.18
2022-08-19T04:29:34.600Z,24.29
2022-08-19T04:32:08.805Z,24.48
2022-08-19T04:35:02.072Z,24.60
2022-08-19T04:37:27.493Z,24.69
2022-08-19T04:40:19.677Z,24.78
2022-08-19T04:42:47.036Z,24.78
2022-08-19T04:45:16.010Z,24.81
2022-08-19T04:47:47.757Z,24.78
2022-08-19T04:50:27.489Z,24.94
2022-08-19T04:52:56.621Z,24.97
2022-08-19T04:55:26.803Z,25.06
2022-08-19T04:57:55.776Z,25.01
2022-08-19T05:00:23.731Z,25.19
2022-08-19T05:02:51.062Z,25.18
2022-08-19T05:05:19.225Z,25.29
2022-08-19T05:07:46.719Z,25.29
2022-08-19T05:10:14.299Z,25.28
2022-08-19T05:12:41.776Z,25.36
2022-08-19T05:15:09.807Z,25.54
2022-08-19T05:17:38.920Z,25.56
2022-08-19T05:20:27.568Z,25.59
2022-08-19T05:22:55.122Z,25.63
2022-08-19T05:25:26.365Z,25.71
2022-08-19T05:27:53.608Z,25.72
2022-08-19T05:30:33.570Z,25.75
2022-08-19T05:33:10.763Z,25.78
2022-08-19T05:35:40.438Z,25.69
2022-08-19T05:38:09.377Z,25.67
2022-08-19T05:40:38.979Z,25.85
2022-08-19T05:43:09.146Z,25.87
2022-08-19T05:45:43.062Z,25.93
2022-08-19T05:48:15.267Z,25.94
2022-08-19T05:50:43.571Z,25.96
2022-08-19T05:53:11.081Z,26.02
2022-08-19T05:55:39.714Z,26.07
2022-08-19T05:58:08.705Z,26.15
2022-08-19T06:00:38.416Z,26.34
2022-08-19T06:03:12.940Z,26.56
2022-08-19T06:05:46.199Z,26.71
2022-08-19T06:08:33.981Z,26.86
2022-08-19T06:11:20.080Z,26.84
2022-08-19T06:13:52.180Z,26.96
2022-08-19T06:16:26.932Z,26.96
2022-08-19T06:18:55.702Z,27.04
2022-08-19T06:21:28.328Z,27.05
2022-08-19T06:23:58.229Z,27.15
2022-08-19T06:26:26.100Z,27.27
2022-08-19T06:28:53.861Z,27.28
2022-08-19T06:31:26.703Z,27.31
2022-08-19T06:33:54.238Z,27.32
2022-08-19T06:36:32.594Z,27.33
2022-08-19T06:39:00.470Z,27.35
2022-08-19T06:41:29.437Z,27.45
2022-08-19T06:43:57.740Z,27.42
2022-08-19T06:46:25.420Z,27.48
2022-08-19T06:48:54.465Z,27.48
2022-08-19T06:51:25.026Z,27.57
2022-08-19T06:53:56.020Z,27.58
2022-08-19T06:56:36.258Z,27.74
2022-08-19T06:59:11.553Z,27.84
2022-08-19T07:02:03.444Z,28.02
2022-08-19T07:04:35.476Z,28.23
2022-08-19T07:07:21.415Z,28.36
2022-08-19T07:09:58.475Z,28.60
2022-08-19T07:12:38.055Z,28.59
2022-08-19T07:15:07.418Z,28.52
2022-08-19T07:17:39.157Z,28.63
2022-08-19T07:20:09.626Z,28.66
2022-08-19T07:22:40.352Z,28.48
2022-08-19T07:25:10.202Z,28.70
2022-08-19T07:27:39.516Z,28.76
2022-08-19T07:30:14.486Z,28.83
2022-08-19T07:32:43.486Z,29.02
2022-08-19T07:35:11.532Z,29.13
2022-08-19T07:37:40.270Z,29.24
2022-08-19T07:40:08.937Z,29.33
2022-08-19T07:42:36.670Z,29.50
2022-08-19T07:45:06.710Z,29.63
2022-08-19T07:47:50.160Z,29.65
2022-08-19T07:50:21.319Z,29.75
2022-08-19T07:52:51.019Z,29.89
2022-08-19T07:55:41.967Z,30.06
2022-08-19T07:58:14.562Z,30.16
2022-08-19T08:00:44.117Z,30.34
2022-08-19T08:03:13.113Z,30.50
2022-08-19T08:05:59.058Z,30.58
2022-08-19T08:08:48.184Z,30.69
2022-08-19T08:11:21.236Z,30.67
2022-08-19T08:14:00.760Z,30.62
2022-08-19T08:16:39.648Z,30.57
2022-08-19T08:19:20.639Z,30.71
2022-08-19T08:21:57.283Z,30.83
2022-08-19T08:24:29.025Z,30.92
2022-08-19T08:27:02.313Z,30.87
2022-08-19T08:29:34.984Z,30.83
2022-08-19T08:32:03.756Z,31.00
2022-08-19T08:34:42.100Z,31.21
2022-08-19T08:37:09.450Z,31.32
2022-08-19T08:39:36.727Z,31.25
2022-08-19T08:42:27.207Z,31.12
2022-08-19T08:45:04.608Z,30.96
2022-08-19T08:47:41.978Z,31.05
2022-08-19T08:50:15.899Z,31.10
2022-08-19T08:52:49.716Z,31.26
2022-08-19T08:55:36.881Z,31.65
2022-08-19T08:58:16.968Z,32.08
2022-08-19T09:00:49.005Z,32.18
2022-08-19T09:03:31.705Z,32.19
2022-08-19T09:06:28.580Z,32.07
2022-08-19T09:09:11.798Z,32.13
2022-08-19T09:12:19.637Z,32.07
2022-08-19T09:15:03.004Z,32.11
2022-08-19T09:20:11.049Z,32.67
2022-08-19T09:22:41.528Z,33.25
2022-08-19T09:25:12.581Z,33.65
2022-08-19T09:27:43.644Z,34.41
2022-08-19T09:30:23.301Z,34.99
2022-08-19T09:32:53.781Z,35.49
2022-08-19T09:35:25.007Z,35.40
2022-08-19T09:37:57.358Z,35.24
2022-08-19T09:40:37.708Z,36.11
2022-08-19T09:43:09.874Z,36.11
2022-08-19T09:45:37.737Z,36.47
2022-08-19T09:48:05.954Z,36.14
2022-08-19T09:50:36.085Z,36.21
2022-08-19T09:53:03.894Z,36.84
2022-08-19T09:55:34.134Z,41.40
2022-08-19T09:58:02.950Z,41.09
2022-08-19T10:00:32.445Z,39.47
2022-08-19T10:03:00.338Z,38.37
2022-08-19T10:05:48.725Z,39.68
2022-08-19T10:08:30.465Z,38.36
2022-08-19T10:10:59.151Z,37.67
2022-08-19T10:13:30.817Z,37.27
2022-08-19T10:16:07.625Z,40.88
2022-08-19T10:18:36.971Z,47.27
2022-08-19T10:21:22.155Z,50.68
2022-08-19T10:23:58.496Z,52.32
2022-08-19T10:26:42.659Z,56.65
2022-08-19T10:29:11.051Z,58.67
2022-08-19T10:32:02.423Z,55.73
2022-08-19T10:34:28.558Z,60.64
2022-08-19T10:37:01.241Z,60.26
2022-08-19T10:39:43.143Z,62.62
2022-08-19T10:42:13.015Z,63.02
2022-08-19T10:44:41.378Z,64.01
2022-08-19T10:47:17.885Z,64.41
2022-08-19T10:50:15.422Z,63.77
2022-08-19T10:52:50.855Z,62.58
2022-08-19T10:55:44.086Z,63.58
2022-08-19T10:58:18.780Z,62.16
2022-08-19T11:00:59.710Z,57.38
2022-08-19T11:03:30.500Z,50.49
2022-08-19T11:06:07.216Z,50.65
2022-08-19T11:08:36.038Z,49.33
2022-08-19T11:11:04.666Z,49.07
2022-08-19T11:13:38.327Z,48.95
2022-08-19T11:16:16.421Z,48.03
2022-08-19T11:18:50.151Z,46.61
2022-08-19T11:21:28.937Z,45.20
2022-08-19T11:24:00.485Z,43.93
2022-08-19T11:26:31.575Z,42.07
2022-08-19T11:29:00.831Z,43.66
2022-08-19T11:31:32.459Z,44.20
2022-08-19T11:34:04.245Z,46.73
2022-08-19T11:36:33.653Z,48.54
2022-08-19T11:39:03.635Z,48.44
2022-08-19T11:41:30.887Z,48.89
2022-08-19T11:43:58.289Z,48.61
2022-08-19T11:46:30.544Z,49.02
2022-08-19T11:49:01.684Z,49.16
2022-08-19T11:51:30.932Z,47.62
2022-08-19T11:54:00.806Z,44.39
2022-08-19T11:56:29.089Z,43.68
2022-08-19T11:59:00.169Z,42.52
2022-08-19T12:01:28.187Z,42.68
2022-08-19T12:03:57.727Z,42.37
2022-08-19T12:06:31.341Z,42.19
2022-08-19T12:09:02.684Z,42.37
2022-08-19T12:11:31.260Z,42.30
2022-08-19T12:14:02.290Z,42.14
2022-08-19T12:16:32.939Z,41.07
2022-08-19T12:19:05.026Z,41.30
2022-08-19T12:21:36.581Z,41.58
2022-08-19T12:24:07.022Z,41.49
2022-08-19T12:26:35.899Z,40.25
2022-08-19T12:29:23.648Z,40.41
2022-08-19T12:31:52.029Z,40.07
2022-08-19T12:34:21.076Z,39.53
2022-08-19T12:36:50.494Z,40.03
2022-08-19T12:39:18.410Z,40.12
2022-08-19T12:41:53.989Z,40.38
2022-08-19T12:44:29.165Z,40.24
2022-08-19T12:46:58.643Z,40.49
2022-08-19T12:49:52.588Z,40.49
2022-08-19T12:52:17.055Z,40.46
2022-08-19T12:54:54.099Z,40.14
2022-08-19T12:57:31.513Z,40.20
2022-08-19T13:00:15.023Z,39.78
2022-08-19T13:02:50.771Z,39.19
2022-08-19T13:05:23.667Z,39.68
2022-08-19T13:07:56.990Z,39.09
2022-08-19T13:10:29.088Z,39.74
2022-08-19T13:13:00.608Z,40.04
2022-08-19T13:15:29.531Z,40.08
2022-08-19T13:17:57.377Z,40.15
2022-08-19T13:20:26.859Z,40.16
2022-08-19T13:22:56.454Z,40.08
2022-08-19T13:25:24.413Z,40.36
2022-08-19T13:27:52.234Z,40.35
2022-08-19T13:30:40.440Z,39.99
2022-08-19T13:33:12.071Z,39.95
2022-08-19T13:35:44.181Z,39.87
2022-08-19T13:38:12.959Z,39.87
2022-08-19T13:40:42.227Z,39.69
2022-08-19T13:43:17.782Z,39.70
2022-08-19T13:45:57.066Z,39.67
2022-08-19T13:48:27.829Z,39.67
2022-08-19T13:50:56.259Z,39.49
2022-08-19T13:53:24.616Z,39.67
2022-08-19T13:55:52.234Z,40.04
2022-08-19T13:58:19.851Z,40.16
2022-08-19T14:00:48.599Z,40.44
2022-08-19T14:03:16.078Z,40.66
2022-08-19T14:05:43.565Z,40.71
2022-08-19T14:08:10.862Z,40.73
2022-08-19T14:10:38.383Z,40.66
2022-08-19T14:13:06.398Z,40.71
2022-08-19T14:15:33.841Z,40.63
2022-08-19T14:18:01.365Z,40.48
2022-08-19T14:20:29.119Z,40.42
2022-08-19T14:22:56.894Z,40.25
2022-08-19T14:25:28.763Z,39.89
2022-08-19T14:27:58.023Z,39.77
2022-08-19T14:30:35.559Z,39.69
2022-08-19T14:33:04.546Z,39.63
2022-08-19T14:35:35.714Z,39.54
2022-08-19T14:38:07.099Z,39.61
2022-08-19T14:40:35.804Z,39.64
2022-08-19T14:43:05.598Z,39.62
2022-08-19T14:45:39.361Z,39.46
2022-08-19T14:48:12.408Z,39.50
2022-08-19T14:50:46.807Z,39.32
2022-08-19T14:53:14.241Z,39.19
2022-08-19T14:55:47.703Z,39.11
2022-08-19T14:58:16.654Z,38.99
2022-08-19T15:01:00.354Z,38.97
2022-08-19T15:03:29.483Z,38.71
2022-08-19T15:05:58.743Z,38.54
2022-08-19T15:08:29.265Z,38.42
2022-08-19T15:10:58.889Z,38.21
2022-08-19T15:13:28.919Z,38.06
2022-08-19T15:15:58.220Z,37.81
2022-08-19T15:18:25.961Z,37.37
2022-08-19T15:20:53.483Z,37.28
2022-08-19T15:23:22.262Z,37.06
2022-08-19T15:25:54.537Z,36.88
2022-08-19T15:28:45.006Z,36.59
2022-08-19T15:31:25.089Z,36.25
2022-08-19T15:33:58.862Z,36.07
2022-08-19T15:36:27.899Z,35.74
2022-08-19T15:38:57.110Z,35.57
2022-08-19T15:41:30.630Z,35.43
2022-08-19T15:44:09.675Z,35.32
2022-08-19T15:46:40.716Z,35.18
2022-08-19T15:49:09.113Z,35.08
2022-08-19T15:51:39.344Z,34.90
2022-08-19T15:54:10.949Z,34.73
2022-08-19T15:57:12.529Z,34.68
2022-08-19T16:00:00.128Z,34.61
2022-08-19T16:02:53.504Z,34.47
2022-08-19T16:05:44.400Z,34.37
2022-08-19T16:08:12.254Z,34.24
2022-08-19T16:10:40.548Z,34.12
2022-08-19T16:13:08.011Z,33.99
2022-08-19T16:15:35.491Z,33.92
2022-08-19T16:18:04.482Z,33.83
2022-08-19T16:20:33.181Z,33.63
2022-08-19T16:23:05.070Z,33.64
2022-08-19T16:25:33.029Z,33.46
2022-08-19T16:28:07.404Z,33.30
2022-08-19T16:30:40.178Z,33.20
2022-08-19T16:33:09.468Z,33.16
2022-08-19T16:35:37.855Z,33.04
2022-08-19T16:38:06.027Z,32.95
2022-08-19T16:40:35.499Z,32.91
2022-08-19T16:43:04.001Z,32.87
2022-08-19T16:45:31.729Z,32.79
2022-08-19T16:47:59.337Z,32.67
2022-08-19T16:50:46.248Z,32.64
2022-08-19T16:53:20.639Z,32.58
2022-08-19T16:55:57.468Z,32.47
2022-08-19T16:58:29.294Z,32.42
2022-08-19T17:01:03.772Z,32.33
2022-08-19T17:03:36.439Z,32.31
2022-08-19T17:06:15.793Z,32.25
2022-08-19T17:08:46.873Z,32.16
2022-08-19T17:11:19.117Z,32.23
2022-08-19T17:13:48.494Z,32.22
2022-08-19T17:16:28.052Z,32.13
2022-08-19T17:18:59.125Z,32.11
2022-08-19T17:21:32.547Z,32.07
2022-08-19T17:24:04.084Z,32.03
2022-08-19T17:26:32.047Z,31.92
2022-08-19T17:29:00.311Z,31.62
2022-08-19T17:31:31.334Z,30.93
2022-08-19T17:33:59.752Z,30.35
2022-08-19T17:36:30.772Z,30.02
2022-08-19T17:39:01.517Z,29.55
2022-08-19T17:41:30.496Z,29.25
2022-08-19T17:43:58.239Z,28.99
2022-08-19T17:46:26.077Z,28.89
2022-08-19T17:48:55.221Z,28.69
2022-08-19T17:51:34.213Z,28.47
2022-08-19T17:54:04.475Z,28.23
2022-08-19T17:56:31.673Z,27.93
2022-08-19T17:59:00.625Z,27.61
2022-08-19T18:01:43.953Z,27.21
2022-08-19T18:04:19.902Z,27.09
2022-08-19T18:06:53.711Z,26.85
2022-08-19T18:09:38.571Z,26.78
2022-08-19T18:12:13.372Z,26.70
2022-08-19T18:14:41.735Z,26.63
2022-08-19T18:17:13.796Z,26.57
2022-08-19T18:19:44.090Z,26.62
2022-08-19T18:22:26.789Z,26.52
2022-08-19T18:24:57.164Z,26.44
2022-08-19T18:27:27.180Z,26.32
2022-08-19T18:29:59.557Z,25.86
2022-08-19T18:32:34.149Z,25.61
2022-08-19T18:35:10.037Z,25.29
2022-08-19T18:37:43.623Z,25.03
2022-08-19T18:40:35.244Z,24.84
2022-08-19T18:43:11.744Z,24.66
2022-08-19T18:46:01.962Z,24.78
2022-08-19T18:48:48.205Z,24.82
2022-08-19T18:51:17.446Z,24.92
2022-08-19T18:53:48.677Z,25.05
2022-08-19T18:56:19.895Z,25.19
2022-08-19T18:58:47.511Z,25.31
2022-08-19T19:01:21.573Z,25.34
2022-08-19T19:03:54.015Z,25.26
2022-08-19T19:06:29.862Z,25.14
2022-08-19T19:08:58.150Z,25.14
2022-08-19T19:11:37.643Z,25.10
2022-08-19T19:14:23.313Z,25.11
2022-08-19T19:17:02.522Z,25.15
2022-08-19T19:19:31.860Z,25.23
2022-08-19T19:22:01.146Z,25.21
2022-08-19T19:24:33.082Z,25.21
2022-08-19T19:27:08.487Z,25.28
2022-08-19T19:29:37.615Z,25.28
2022-08-19T19:32:16.689Z,25.27
2022-08-19T19:34:45.577Z,25.19
2022-08-19T19:37:13.269Z,25.17
2022-08-19T19:39:45.284Z,25.19
2022-08-19T19:42:21.607Z,25.24
2022-08-19T19:44:52.727Z,25.27
2022-08-19T19:47:24.431Z,25.32
2022-08-19T19:50:13.395Z,25.38
2022-08-19T19:52:41.600Z,25.41
2022-08-19T19:55:15.782Z,25.45
2022-08-19T19:57:54.031Z,25.45
2022-08-19T20:00:22.161Z,25.42
2022-08-19T20:02:51.433Z,25.38
2022-08-19T20:05:21.534Z,25.38
2022-08-19T20:08:10.459Z,25.43
2022-08-19T20:10:40.250Z,25.42
2022-08-19T20:13:09.241Z,25.41
2022-08-19T20:15:42.178Z,25.41
2022-08-19T20:18:14.537Z,25.45
2022-08-19T20:20:43.665Z,25.48
2022-08-19T20:23:11.361Z,25.51
2022-08-19T20:25:39.903Z,25.53
2022-08-19T20:28:08.801Z,25.56
2022-08-19T20:30:36.557Z,25.61
2022-08-19T20:33:07.835Z,25.63
2022-08-19T20:35:37.463Z,25.60
2022-08-19T20:38:06.640Z,25.59
2022-08-19T20:40:35.412Z,25.58
2022-08-19T20:43:07.813Z,25.56
2022-08-19T20:45:36.824Z,25.50
2022-08-19T20:48:07.464Z,25.48
2022-08-19T20:50:36.563Z,25.47
2022-08-19T20:53:17.572Z,25.46
2022-08-19T20:55:49.327Z,25.47
2022-08-19T20:58:21.473Z,25.49
2022-08-19T21:00:50.805Z,25.50
2022-08-19T21:03:25.003Z,25.43
2022-08-19T21:05:54.392Z,25.39
2022-08-19T21:08:24.368Z,25.16
2022-08-19T21:10:54.478Z,25.08
2022-08-19T21:13:23.581Z,24.97
2022-08-19T21:15:51.543Z,24.93
2022-08-19T21:18:22.022Z,24.87
2022-08-19T21:20:50.668Z,24.86
2022-08-19T21:23:25.672Z,24.77
2022-08-19T21:25:55.526Z,24.74
2022-08-19T21:28:29.918Z,24.68
2022-08-19T21:31:06.982Z,24.59
2022-08-19T21:33:34.895Z,24.44
2022-08-19T21:36:03.239Z,24.44
2022-08-19T21:38:31.251Z,24.37
2022-08-19T21:40:59.075Z,24.20
2022-08-19T21:43:26.512Z,24.11
2022-08-19T21:45:53.905Z,23.97
2022-08-19T21:48:21.402Z,23.96
2022-08-19T21:50:49.756Z,23.91
2022-08-19T21:53:18.773Z,23.95
2022-08-19T21:55:52.774Z,23.97
2022-08-19T21:58:29.213Z,23.95
2022-08-19T22:01:06.175Z,23.97
2022-08-19T22:03:35.947Z,24.05
2022-08-19T22:06:03.803Z,24.03
2022-08-19T22:08:31.643Z,24.05
2022-08-19T22:11:01.778Z,24.07
2022-08-19T22:13:36.889Z,24.13
2022-08-19T22:16:07.447Z,24.20
2022-08-19T22:18:35.502Z,24.24
2022-08-19T22:21:06.393Z,24.37
2022-08-19T22:23:37.191Z,24.37
2022-08-19T22:26:04.507Z,24.38
2022-08-19T22:28:31.733Z,24.43
2022-08-19T22:30:59.237Z,24.45
2022-08-19T22:33:27.824Z,24.48
2022-08-19T22:35:55.592Z,24.52
2022-08-19T22:38:24.141Z,24.50
2022-08-19T22:40:53.920Z,24.55
2022-08-19T22:43:26.327Z,24.53
2022-08-19T22:45:55.827Z,24.56
2022-08-19T22:48:28.212Z,24.55
2022-08-19T22:51:15.679Z,24.58
2022-08-19T22:53:46.841Z,24.60
2022-08-19T22:56:21.175Z,24.61
2022-08-19T22:58:50.872Z,24.60
2022-08-19T23:01:29.617Z,24.56
2022-08-19T23:03:59.257Z,24.52
2022-08-19T23:06:33.180Z,24.45
2022-08-19T23:09:05.042Z,24.39
2022-08-19T23:11:39.862Z,24.35
2022-08-19T23:14:11.363Z,24.34
2022-08-19T23:16:41.525Z,24.32
2022-08-19T23:19:10.493Z,24.32
2022-08-19T23:21:41.467Z,24.34
2022-08-19T23:24:09.818Z,24.38
2022-08-19T23:26:37.428Z,24.32
2022-08-19T23:29:24.352Z,24.30
2022-08-19T23:31:52.082Z,24.22
2022-08-19T23:34:20.419Z,24.21
2022-08-19T23:36:48.455Z,24.19
2022-08-19T23:39:15.956Z,24.19
2022-08-19T23:41:43.272Z,24.23
2022-08-19T23:44:14.694Z,24.23
2022-08-19T23:46:51.899Z,24.24
2022-08-19T23:49:24.403Z,24.23
2022-08-19T23:51:52.968Z,24.24
2022-08-19T23:54:20.452Z,24.26
2022-08-19T23:56:47.834Z,24.22
2022-08-19T23:59:15.284Z,24.19
